Time;durP1;ratioP1;P1;durP2;ratioP2;P2;SDS_P1;SDS_P2;PMS_P1;PMS_P2;Temp;Humidity;BMP_temperature;BMP_pressure;BME280_temperature;BME280_humidity;BME280_pressure;Samples;Min_cycle;Max_cycle;Signal;HPM_P1;HPM_P2
2022/07/20 00:00:00;;;;;;;3.53;2.65;;;;;;;25.23;57.94;101183.16;2615568;36;20471;-50
2022/07/20 00:02:29;;;;;;;5.32;3.33;;;;;;;25.23;55.51;101177.63;2613821;31;20041;-47
2022/07/20 00:04:57;;;;;;;5.97;2.83;;;;;;;25.38;53.42;101180.06;2615291;31;20038;-47
2022/07/20 00:07:25;;;;;;;7.47;3.17;;;;;;;25.51;53.17;101182.72;2614843;36;20444;-46
2022/07/20 00:12:34;;;;;;;4.82;3.28;;;;;;;25.46;53.33;101179.78;2615281;36;20053;-46
2022/07/20 00:15:06;;;;;;;4.90;3.08;;;;;;;25.41;54.65;101176.03;2615708;36;20577;-46
2022/07/20 00:17:34;;;;;;;3.28;2.67;;;;;;;25.40;53.87;101175.19;2615264;36;20432;-46
2022/07/20 00:20:02;;;;;;;3.60;2.78;;;;;;;25.48;53.55;101177.63;2615179;36;20030;-47
2022/07/20 00:22:31;;;;;;;6.65;3.25;;;;;;;25.39;52.91;101178.16;2615629;36;20480;-51
2022/07/20 00:24:59;;;;;;;6.47;3.22;;;;;;;25.16;53.71;101179.59;2615614;36;20436;-49
2022/07/20 00:27:27;;;;;;;4.55;3.42;;;;;;;25.20;53.74;101180.84;2615579;36;20030;-53
2022/07/20 00:29:56;;;;;;;5.45;2.83;;;;;;;25.05;55.21;101183.13;2617273;31;20499;-49
2022/07/20 00:32:26;;;;;;;5.85;3.33;;;;;;;25.19;53.63;101179.16;2615139;31;20038;-52
2022/07/20 00:34:55;;;;;;;3.80;2.97;;;;;;;25.14;53.88;101182.59;2615102;36;20069;-49
2022/07/20 00:37:23;;;;;;;4.47;2.78;;;;;;;24.99;55.40;101179.34;2615502;36;20026;-49
2022/07/20 00:39:51;;;;;;;;;;;;;;;24.79;57.08;101174.84;2616000;36;20186;-47
2022/07/20 00:42:20;;;;;;;7.15;3.30;;;;;;;24.70;56.80;101170.66;2615274;36;19997;-50
2022/07/20 00:44:48;;;;;;;5.38;2.80;;;;;;;24.70;57.41;101169.81;2615843;36;20077;-51
2022/07/20 00:47:16;;;;;;;6.97;3.00;;;;;;;24.82;56.95;101163.38;2615757;36;20030;-49
2022/07/20 00:49:47;;;;;;;7.05;3.08;;;;;;;24.74;55.56;101165.56;2615703;36;20069;-51
2022/07/20 00:52:16;;;;;;;7.68;3.05;;;;;;;24.91;55.62;101165.84;2615091;36;20038;-48
2022/07/20 00:54:48;;;;;;;;;;;;;;;24.86;55.74;101158.25;2614996;36;20034;-50
2022/07/20 00:57:17;;;;;;;4.85;3.25;;;;;;;24.76;58.42;101164.25;2614540;36;19947;-50
2022/07/20 00:59:46;;;;;;;3.92;2.70;;;;;;;24.70;55.27;101165.16;2615712;36;20035;-46
2022/07/20 01:02:14;;;;;;;6.70;2.92;;;;;;;24.62;56.60;101159.94;2615464;31;20031;-50
2022/07/20 01:04:42;;;;;;;3.15;2.70;;;;;;;24.52;57.55;101156.78;2615574;36;20037;-48
2022/07/20 01:07:14;;;;;;;4.93;3.03;;;;;;;24.57;56.19;101155.06;2615551;36;20462;-54
2022/07/20 01:09:43;;;;;;;6.47;2.80;;;;;;;24.54;56.43;101154.66;2615935;36;20047;-49
2022/07/20 01:12:12;;;;;;;4.65;3.42;;;;;;;24.52;56.88;101152.13;2615797;31;20034;-47
2022/07/20 01:14:41;;;;;;;6.75;3.20;;;;;;;24.55;57.05;101154.44;2616370;36;20506;-51
2022/07/20 01:17:09;;;;;;;3.75;3.03;;;;;;;24.51;59.85;101152.34;2615754;36;20043;-47
2022/07/20 01:19:37;;;;;;;4.50;2.95;;;;;;;24.46;57.85;101158.50;2615546;36;20030;-45
2022/07/20 01:22:08;;;;;;;6.03;3.03;;;;;;;24.36;57.14;101161.75;2615436;36;20038;-48
2022/07/20 01:24:37;;;;;;;4.40;2.50;;;;;;;24.37;58.68;101160.69;2615600;36;20034;-50
2022/07/20 01:27:08;;;;;;;2.83;2.50;;;;;;;24.24;61.45;101160.75;2614950;36;20039;-46
2022/07/20 01:29:36;;;;;;;6.97;2.97;;;;;;;24.13;62.10;101160.38;2615945;36;20858;-49
2022/07/20 01:32:04;;;;;;;4.57;3.28;;;;;;;24.03;61.10;101165.50;2615038;36;20560;-46
2022/07/20 01:34:32;;;;;;;6.90;2.97;;;;;;;23.98;61.66;101157.06;2615406;36;20544;-48
2022/07/20 01:37:02;;;;;;;6.95;2.78;;;;;;;23.90;63.49;101157.31;2613533;36;20038;-48
2022/07/20 01:39:33;;;;;;;3.60;2.70;;;;;;;23.88;63.98;101156.69;2615170;36;20034;-46
2022/07/20 01:42:01;;;;;;;5.20;3.40;;;;;;;23.84;64.05;101158.16;2615812;36;20412;-48
2022/07/20 01:44:29;;;;;;;5.60;3.38;;;;;;;23.76;65.45;101154.59;2615640;36;20952;-47
2022/07/20 01:46:57;;;;;;;5.90;3.42;;;;;;;23.77;63.79;101160.94;2610809;36;20575;-50
2022/07/20 01:49:27;;;;;;;6.07;3.20;;;;;;;23.79;66.03;101162.41;2614874;36;20034;-50
2022/07/20 01:51:55;;;;;;;3.92;3.17;;;;;;;23.74;65.32;101169.59;2615084;36;20650;-51
2022/07/20 01:54:24;;;;;;;4.07;3.60;;;;;;;23.75;64.85;101168.56;2615564;36;20065;-49
2022/07/20 01:56:55;;;;;;;5.32;3.28;;;;;;;23.59;68.38;101158.88;2615318;36;20041;-46
2022/07/20 01:59:23;;;;;;;4.57;2.97;;;;;;;23.51;69.00;101156.34;2614973;36;20038;-49
2022/07/20 02:01:51;;;;;;;5.85;3.22;;;;;;;23.45;71.06;101163.53;2614796;36;20031;-48
2022/07/20 02:04:19;;;;;;;5.88;3.40;;;;;;;23.35;73.25;101166.75;2615554;36;20030;-48
2022/07/20 02:06:48;;;;;;;3.97;3.30;;;;;;;23.36;82.13;101159.34;2614593;36;20043;-52
2022/07/20 02:09:16;;;;;;;5.35;3.13;;;;;;;23.22;79.52;101169.50;2616223;36;20130;-46
2022/07/20 02:11:44;;;;;;;6.50;3.50;;;;;;;23.17;81.86;101163.78;2615104;36;20035;-47
2022/07/20 02:14:15;;;;;;;5.32;3.33;;;;;;;23.18;86.27;101162.75;2616002;36;20031;-51
2022/07/20 02:16:43;;;;;;;4.88;3.25;;;;;;;23.34;70.39;101173.28;2614354;36;20602;-50
2022/07/20 02:19:12;;;;;;;5.53;3.60;;;;;;;23.51;68.92;101150.84;2615902;36;20030;-50
2022/07/20 02:21:40;;;;;;;3.95;3.33;;;;;;;23.41;73.15;101152.16;2615214;36;20041;-50
2022/07/20 02:24:09;;;;;;;4.80;3.35;;;;;;;23.47;72.14;101166.94;2615520;36;20023;-47
2022/07/20 02:26:37;;;;;;;5.55;3.08;;;;;;;23.49;75.31;101163.97;2614891;36;20030;-46
2022/07/20 02:29:06;;;;;;;5.78;3.10;;;;;;;23.35;75.73;101158.50;2615945;36;20848;-47
2022/07/20 02:31:37;;;;;;;4.65;3.85;;;;;;;23.12;79.22;101164.44;2614576;36;20067;-48
2022/07/20 02:34:05;;;;;;;6.43;3.00;;;;;;;22.98;82.67;101159.97;2615240;31;20031;-47
2022/07/20 02:36:33;;;;;;;8.13;3.88;;;;;;;22.93;81.98;101157.84;2614734;36;20081;-48
2022/07/20 02:39:01;;;;;;;9.05;3.72;;;;;;;22.92;84.55;101156.16;2615418;36;20082;-47
2022/07/20 02:41:29;;;;;;;5.53;3.78;;;;;;;22.88;81.14;101147.50;2615061;36;20034;-48
2022/07/20 02:43:58;;;;;;;7.43;4.95;;;;;;;22.94;79.91;101143.09;2615588;36;20052;-45
2022/07/20 02:46:26;;;;;;;6.82;3.95;;;;;;;22.93;82.72;101142.22;2614485;36;20065;-47
2022/07/20 02:48:57;;;;;;;5.68;3.72;;;;;;;22.98;78.74;101138.88;2615531;36;20022;-46
2022/07/20 02:51:25;;;;;;;5.40;3.78;;;;;;;22.98;82.01;101140.75;2615416;31;20034;-46
2022/07/20 02:53:53;;;;;;;4.85;3.70;;;;;;;22.98;81.09;101144.34;2614984;36;20567;-50
2022/07/20 02:56:22;;;;;;;5.30;3.65;;;;;;;23.09;73.22;101143.69;2614927;36;20038;-49
2022/07/20 02:58:50;;;;;;;6.03;3.55;;;;;;;23.14;77.43;101132.09;2615248;36;20067;-48
2022/07/20 03:01:18;;;;;;;5.22;3.35;;;;;;;23.14;76.40;101134.03;2614577;36;20065;-47
2022/07/20 03:03:46;;;;;;;5.50;3.67;;;;;;;23.19;74.08;101134.22;2615628;36;20440;-47
2022/07/20 03:06:20;;;;;;;8.23;4.22;;;;;;;23.37;72.51;101134.41;2614772;36;20034;-48
2022/07/20 03:08:48;;;;;;;7.47;4.38;;;;;;;23.52;69.60;101136.91;2615462;36;20552;-47
2022/07/20 03:11:16;;;;;;;5.45;4.40;;;;;;;23.52;70.32;101130.56;2614729;36;20030;-47
2022/07/20 03:13:45;;;;;;;8.98;4.35;;;;;;;23.57;68.63;101128.00;2615336;36;20615;-51
2022/07/20 03:16:13;;;;;;;7.18;3.90;;;;;;;23.67;67.15;101133.88;2614388;36;20034;-48
2022/07/20 03:18:41;;;;;;;7.72;3.90;;;;;;;23.84;64.52;101134.25;2615445;36;20635;-47
2022/07/20 03:21:09;;;;;;;5.75;3.55;;;;;;;23.97;64.70;101144.41;2614607;36;20055;-47
2022/07/20 03:23:40;;;;;;;5.43;3.40;;;;;;;24.12;63.49;101155.94;2615251;36;20039;-51
2022/07/20 03:26:09;;;;;;;9.20;3.50;;;;;;;24.11;63.45;101146.00;2615554;36;20488;-46
2022/07/20 03:28:37;;;;;;;7.95;3.63;;;;;;;23.94;64.06;101151.16;2615358;36;20069;-47
2022/07/20 03:31:05;;;;;;;7.15;3.78;;;;;;;24.11;63.45;101157.00;2614764;36;20042;-51
2022/07/20 03:33:34;;;;;;;5.18;3.40;;;;;;;24.17;62.89;101162.69;2615349;36;20061;-49
2022/07/20 03:36:02;;;;;;;9.38;3.55;;;;;;;24.20;62.43;101170.50;2614767;36;20061;-47
2022/07/20 03:38:30;;;;;;;5.80;3.67;;;;;;;24.23;62.86;101181.06;2615414;36;20065;-46
2022/07/20 03:41:01;;;;;;;8.50;4.05;;;;;;;24.01;62.87;101177.78;2615023;36;20063;-47
2022/07/20 03:43:29;;;;;;;9.80;3.92;;;;;;;23.84;64.95;101171.91;2615268;36;20031;-46
2022/07/20 03:45:58;;;;;;;7.05;4.43;;;;;;;23.83;65.06;101184.78;2614456;36;20034;-49
2022/07/20 03:48:26;;;;;;;9.40;4.20;;;;;;;23.86;65.79;101180.81;2614502;36;20047;-47
2022/07/20 03:50:54;;;;;;;8.90;4.25;;;;;;;23.71;69.19;101184.63;2616431;36;20397;-47
2022/07/20 03:53:22;;;;;;;6.95;3.97;;;;;;;23.66;66.96;101200.06;2615428;36;20043;-47
2022/07/20 03:55:51;;;;;;;7.40;4.72;;;;;;;23.66;69.04;101209.16;2614969;36;20034;-48
2022/07/20 03:58:22;;;;;;;6.65;4.32;;;;;;;23.52;69.61;101207.50;2614066;31;20038;-50
2022/07/20 04:00:50;;;;;;;7.28;4.22;;;;;;;23.50;71.05;101204.97;2615652;36;20547;-48
2022/07/20 04:03:18;;;;;;;7.90;4.57;;;;;;;23.52;71.13;101213.00;2614387;36;20061;-46
2022/07/20 04:05:46;;;;;;;9.80;5.05;;;;;;;23.30;73.81;101215.97;2614761;36;20069;-45
2022/07/20 04:08:15;;;;;;;8.45;5.05;;;;;;;23.24;74.58;101222.31;2614554;36;20034;-48
2022/07/20 04:10:43;;;;;;;9.70;4.53;;;;;;;23.14;80.39;101221.88;2615609;36;20427;-47
2022/07/20 04:13:11;;;;;;;5.55;4.50;;;;;;;23.03;81.29;101229.66;2614761;36;20045;-50
2022/07/20 04:15:42;;;;;;;6.80;5.03;;;;;;;22.87;85.39;101239.13;2615330;31;20077;-50
2022/07/20 04:18:10;;;;;;;6.75;4.10;;;;;;;22.80;86.17;101237.44;2613859;36;20067;-47
2022/07/20 04:20:39;;;;;;;6.10;4.35;;;;;;;22.67;90.27;101243.72;2615592;36;20597;-49
2022/07/20 04:23:07;;;;;;;9.00;5.28;;;;;;;22.72;89.88;101243.97;2614885;36;20031;-48
2022/07/20 04:25:35;;;;;;;7.43;5.20;;;;;;;22.72;89.98;101252.19;2614835;36;20571;-47
2022/07/20 04:28:04;;;;;;;7.10;4.93;;;;;;;22.72;92.15;101246.72;2614581;36;20035;-48
2022/07/20 04:30:34;;;;;;;10.32;5.30;;;;;;;22.68;97.56;101257.25;2615331;36;20043;-48
2022/07/20 04:33:05;;;;;;;7.00;5.22;;;;;;;22.80;95.68;101256.66;2614219;36;20129;-45
2022/07/20 04:35:34;;;;;;;8.45;5.40;;;;;;;22.68;97.72;101256.41;2614361;36;20046;-46
2022/07/20 04:38:02;;;;;;;7.22;5.30;;;;;;;22.59;99.80;101244.78;2615864;31;20532;-48
2022/07/20 04:40:30;;;;;;;6.90;4.97;;;;;;;22.65;100.00;101259.56;2614442;36;20061;-49
2022/07/20 04:42:59;;;;;;;8.18;5.47;;;;;;;22.60;100.00;101275.78;2614838;31;20043;-46
2022/07/20 04:45:27;;;;;;;10.32;5.45;;;;;;;22.49;100.00;101286.28;2614887;36;20026;-47
2022/07/20 04:47:55;;;;;;;10.85;5.75;;;;;;;22.40;100.00;101291.09;2614027;36;20042;-46
2022/07/20 04:50:26;;;;;;;10.40;6.10;;;;;;;22.39;100.00;101296.81;2614269;36;20065;-47
2022/07/20 04:52:55;;;;;;;10.18;6.03;;;;;;;22.45;100.00;101297.88;2614925;36;20037;-49
2022/07/20 04:55:23;;;;;;;9.23;6.10;;;;;;;22.42;100.00;101301.03;2614794;36;20038;-47
2022/07/20 04:57:51;;;;;;;11.52;6.55;;;;;;;22.42;100.00;101310.09;2614917;36;20034;-48
2022/07/20 05:00:20;;;;;;;12.30;6.63;;;;;;;22.52;100.00;101298.75;2615448;31;20101;-47
2022/07/20 05:02:48;;;;;;;14.10;6.80;;;;;;;22.55;100.00;101318.38;2615062;36;20065;-48
2022/07/20 05:05:17;;;;;;;12.98;7.00;;;;;;;22.55;100.00;101323.03;2615518;36;20037;-50
2022/07/20 05:07:47;;;;;;;13.25;7.38;;;;;;;22.61;100.00;101324.97;2616102;36;20440;-47
2022/07/20 05:10:16;;;;;;;8.75;6.45;;;;;;;22.60;100.00;101309.56;2615557;36;20424;-49
2022/07/20 05:12:44;;;;;;;12.77;6.78;;;;;;;22.62;100.00;101325.81;2615530;36;20038;-47
2022/07/20 05:15:13;;;;;;;15.18;7.72;;;;;;;22.59;100.00;101318.84;2615890;31;20038;-49
2022/07/20 05:17:41;;;;;;;18.73;9.05;;;;;;;22.56;100.00;101327.47;2615243;36;20026;-46
2022/07/20 05:20:11;;;;;;;18.65;8.40;;;;;;;22.70;100.00;101328.38;2615482;36;20073;-46
2022/07/20 05:22:39;;;;;;;14.27;9.10;;;;;;;22.67;100.00;101324.16;2615753;31;20149;-45
2022/07/20 05:25:11;;;;;;;14.32;9.65;;;;;;;22.65;100.00;101318.00;2615757;36;20037;-47
2022/07/20 05:27:39;;;;;;;15.40;9.80;;;;;;;22.80;100.00;101315.09;2615467;36;20044;-47
2022/07/20 05:30:09;;;;;;;17.50;10.38;;;;;;;22.86;100.00;101329.91;2615134;36;20626;-51
2022/07/20 05:32:37;;;;;;;17.92;9.05;;;;;;;22.88;100.00;101319.59;2614650;36;20071;-48
2022/07/20 05:35:08;;;;;;;16.83;9.07;;;;;;;23.00;100.00;101337.13;2614835;36;20034;-46
2022/07/20 05:37:37;;;;;;;17.27;9.30;;;;;;;23.05;100.00;101331.03;2615577;36;20034;-48
2022/07/20 05:40:06;;;;;;;16.33;10.23;;;;;;;23.05;100.00;101323.63;2616331;31;20522;-48
2022/07/20 05:42:37;;;;;;;18.50;11.00;;;;;;;22.95;100.00;101328.66;2615451;31;20038;-47
2022/07/20 05:45:06;;;;;;;12.73;10.05;;;;;;;22.93;100.00;101331.63;2615927;36;20035;-49
2022/07/20 05:47:34;;;;;;;;;;;;;;;23.01;100.00;101344.31;2615799;36;20536;-47
2022/07/20 05:50:02;;;;;;;18.40;11.57;;;;;;;23.11;100.00;101343.94;2617084;36;19965;-48
2022/07/20 05:52:34;;;;;;;19.80;12.20;;;;;;;23.13;100.00;101354.72;2616394;36;20308;-47
2022/07/20 05:55:03;;;;;;;20.83;11.68;;;;;;;23.16;100.00;101351.56;2616049;36;20038;-48
2022/07/20 05:57:31;;;;;;;20.15;12.38;;;;;;;23.15;100.00;101349.88;2615831;36;20034;-47
2022/07/20 06:00:02;;;;;;;26.55;13.70;;;;;;;23.14;100.00;101339.94;2616626;36;20039;-48
2022/07/20 06:02:30;;;;;;;20.75;13.48;;;;;;;23.07;100.00;101346.25;2615153;36;20057;-50
2022/07/20 06:04:58;;;;;;;19.38;13.05;;;;;;;23.16;100.00;101357.03;2615388;31;20057;-47
2022/07/20 06:07:27;;;;;;;25.05;13.93;;;;;;;23.21;100.00;101343.56;2614844;36;20065;-47
2022/07/20 06:09:55;;;;;;;20.73;13.25;;;;;;;23.27;100.00;101356.44;2615818;36;20026;-49
2022/07/20 06:12:23;;;;;;;27.20;15.55;;;;;;;23.30;100.00;101364.25;2615278;31;20034;-46
2022/07/20 06:14:51;;;;;;;23.95;13.45;;;;;;;23.45;100.00;101355.84;2615509;36;20034;-48
2022/07/20 06:17:22;;;;;;;25.42;14.18;;;;;;;23.53;100.00;101360.31;2613301;36;20078;-45
2022/07/20 06:19:51;;;;;;;27.23;15.73;;;;;;;23.61;100.00;101371.94;2616161;36;20149;-47
2022/07/20 06:22:19;;;;;;;27.25;16.52;;;;;;;23.61;100.00;101387.56;2614860;31;20077;-46
2022/07/20 06:24:47;;;;;;;29.67;15.70;;;;;;;23.74;100.00;101397.72;2615687;36;20039;-48
2022/07/20 06:27:15;;;;;;;29.23;17.02;;;;;;;23.75;100.00;101397.50;2614919;36;20038;-47
2022/07/20 06:29:44;;;;;;;27.08;16.40;;;;;;;23.77;100.00;101402.78;2616061;36;20408;-52
2022/07/20 06:32:12;;;;;;;22.63;16.30;;;;;;;24.06;100.00;101408.97;2614551;36;20034;-50
2022/07/20 06:34:43;;;;;;;25.80;17.15;;;;;;;24.20;100.00;101412.53;2615504;31;20031;-50
2022/07/20 06:37:11;;;;;;;23.45;15.35;;;;;;;24.46;100.00;101411.66;2614044;36;20105;-49
2022/07/20 06:39:40;;;;;;;28.20;17.73;;;;;;;24.62;100.00;101426.88;2614045;36;20092;-48
2022/07/20 06:42:08;;;;;;;28.85;16.77;;;;;;;24.93;100.00;101428.06;2615348;36;20412;-50
2022/07/20 06:44:36;;;;;;;26.98;17.85;;;;;;;24.95;100.00;101435.00;2615555;31;20054;-46
2022/07/20 06:47:05;;;;;;;31.88;18.80;;;;;;;25.00;100.00;101437.97;2614687;36;20034;-50
2022/07/20 06:49:34;;;;;;;27.60;18.35;;;;;;;25.05;100.00;101442.81;2615445;36;20035;-51
2022/07/20 06:52:05;;;;;;;;;;;;;;;25.09;100.00;101449.59;2615476;36;20568;-47
2022/07/20 06:54:33;;;;;;;26.52;18.65;;;;;;;25.22;100.00;101453.34;2615846;31;20005;-51
2022/07/20 06:57:02;;;;;;;31.13;18.40;;;;;;;25.47;100.00;101465.34;2614456;36;20122;-47
2022/07/20 06:59:30;;;;;;;24.20;17.27;;;;;;;25.69;100.00;101459.44;2615454;36;20034;-47
2022/07/20 07:01:58;;;;;;;24.35;16.58;;;;;;;25.83;100.00;101466.56;2615022;31;20547;-49
2022/07/20 07:04:27;;;;;;;28.90;19.10;;;;;;;25.82;100.00;101467.63;2614964;36;20050;-48
2022/07/20 07:06:55;;;;;;;24.98;17.08;;;;;;;25.81;100.00;101477.00;2615075;36;20035;-48
2022/07/20 07:09:26;;;;;;;27.73;17.85;;;;;;;25.97;100.00;101477.50;2614718;36;20034;-52
2022/07/20 07:11:54;;;;;;;23.77;17.83;;;;;;;26.01;100.00;101476.03;2614224;36;20038;-48
2022/07/20 07:14:22;;;;;;;25.23;16.75;;;;;;;25.97;100.00;101483.03;2615927;31;20460;-47
2022/07/20 07:16:51;;;;;;;26.88;16.65;;;;;;;26.26;100.00;101478.78;2614456;36;20038;-48
2022/07/20 07:19:19;;;;;;;22.55;16.20;;;;;;;26.79;100.00;101479.38;2615706;36;20034;-49
2022/07/20 07:21:48;;;;;;;21.98;15.88;;;;;;;27.16;100.00;101479.34;2615031;36;20052;-52
2022/07/20 07:24:16;;;;;;;19.38;14.00;;;;;;;27.09;100.00;101484.94;2614410;36;20544;-50
2022/07/20 07:26:47;;;;;;;17.83;14.15;;;;;;;26.61;100.00;101486.53;2614936;36;20035;-51
2022/07/20 07:29:15;;;;;;;19.15;13.90;;;;;;;26.64;100.00;101499.03;2615283;36;20044;-50
2022/07/20 07:31:43;;;;;;;18.42;14.25;;;;;;;26.76;100.00;101508.28;2614828;36;20037;-48
2022/07/20 07:34:11;;;;;;;23.63;14.43;;;;;;;26.88;100.00;101514.75;2615177;36;20050;-48
2022/07/20 07:36:40;;;;;;;18.80;13.02;;;;;;;26.99;100.00;101523.34;2614320;36;20071;-48
2022/07/20 07:39:08;;;;;;;20.42;14.23;;;;;;;26.92;100.00;101529.75;2614709;36;20030;-46
2022/07/20 07:41:36;;;;;;;18.40;13.77;;;;;;;27.36;100.00;101534.41;2614987;31;20428;-51
2022/07/20 07:44:07;;;;;;;21.63;14.68;;;;;;;27.00;100.00;101533.31;2615325;31;20041;-49
2022/07/20 07:46:36;;;;;;;20.23;15.57;;;;;;;26.61;100.00;101543.66;2614479;36;20038;-48
2022/07/20 07:49:04;;;;;;;23.98;15.02;;;;;;;27.05;100.00;101552.81;2615116;36;20034;-47
2022/07/20 07:51:32;;;;;;;21.02;13.88;;;;;;;27.37;100.00;101555.44;2615048;31;20067;-47
2022/07/20 07:54:01;;;;;;;21.48;12.57;;;;;;;27.08;100.00;101561.47;2614958;36;20058;-47
2022/07/20 07:56:29;;;;;;;17.98;12.65;;;;;;;27.37;100.00;101570.13;2614684;36;20049;-46
2022/07/20 07:58:58;;;;;;;18.58;12.52;;;;;;;27.22;100.00;101573.25;2614568;36;20073;-49
2022/07/20 08:01:28;;;;;;;18.20;12.50;;;;;;;27.46;100.00;101584.47;2612974;36;20588;-51
2022/07/20 08:03:57;;;;;;;18.10;12.48;;;;;;;26.96;100.00;101574.38;2615345;31;20061;-48
2022/07/20 08:06:25;;;;;;;16.27;11.75;;;;;;;27.11;100.00;101571.22;2614599;36;20077;-49
2022/07/20 08:08:53;;;;;;;15.07;11.20;;;;;;;27.39;100.00;101576.25;2614807;36;20042;-50
2022/07/20 08:11:21;;;;;;;16.85;11.75;;;;;;;27.18;100.00;101574.75;2614547;36;20717;-50
2022/07/20 08:13:50;;;;;;;14.93;11.65;;;;;;;27.10;100.00;101586.09;2614075;36;20069;-50
2022/07/20 08:16:18;;;;;;;16.10;11.98;;;;;;;27.39;100.00;101589.22;2613882;36;20073;-46
2022/07/20 08:18:49;;;;;;;16.77;12.02;;;;;;;27.74;100.00;101586.66;2615414;36;20408;-49
2022/07/20 08:21:18;;;;;;;14.85;11.27;;;;;;;27.24;100.00;101595.13;2615331;36;20464;-48
2022/07/20 08:23:46;;;;;;;18.52;10.30;;;;;;;27.18;100.00;101596.88;2614958;36;20427;-48
2022/07/20 08:26:14;;;;;;;16.77;10.23;;;;;;;27.34;100.00;101608.41;2614839;36;20421;-53
2022/07/20 08:28:42;;;;;;;13.48;9.52;;;;;;;27.45;100.00;101615.94;2614945;31;20041;-48
2022/07/20 08:31:11;;;;;;;15.07;9.35;;;;;;;27.86;100.00;101611.59;2614761;36;20031;-49
2022/07/20 08:33:39;;;;;;;14.98;9.70;;;;;;;27.85;100.00;101607.13;2615807;36;20410;-52
2022/07/20 08:36:10;;;;;;;15.13;9.32;;;;;;;27.99;100.00;101618.06;2615185;36;20143;-48
2022/07/20 08:38:38;;;;;;;12.55;9.00;;;;;;;28.24;100.00;101610.44;2616591;36;20463;-48
2022/07/20 08:41:09;;;;;;;17.90;9.68;;;;;;;28.02;100.00;101612.03;2615075;36;20055;-49
2022/07/20 08:43:37;;;;;;;14.98;9.77;;;;;;;27.71;100.00;101622.22;2615772;36;20098;-48
2022/07/20 08:46:06;;;;;;;15.30;9.70;;;;;;;27.85;100.00;101609.91;2615191;36;20038;-50
2022/07/20 08:48:36;;;;;;;21.27;9.85;;;;;;;28.23;100.00;101611.53;2615274;36;20039;-48
2022/07/20 08:51:05;;;;;;;13.15;9.70;;;;;;;28.25;100.00;101609.38;2614717;36;20046;-49
2022/07/20 08:53:36;;;;;;;16.42;10.32;;;;;;;28.17;100.00;101618.00;2615590;36;20038;-47
2022/07/20 08:56:04;;;;;;;17.70;10.07;;;;;;;28.27;100.00;101615.50;2615184;36;20041;-47
2022/07/20 08:58:33;;;;;;;11.93;9.43;;;;;;;28.59;100.00;101618.00;2615292;36;20029;-51
2022/07/20 09:01:01;;;;;;;13.27;9.55;;;;;;;28.65;100.00;101616.22;2615550;36;20044;-51
2022/07/20 09:03:29;;;;;;;14.13;9.55;;;;;;;28.76;100.00;101603.47;2614977;36;20041;-51
2022/07/20 09:06:06;;;;;;;15.73;9.07;;;;;;;28.89;100.00;101603.22;2615506;36;20061;-51
2022/07/20 09:08:37;;;;;;;14.55;8.95;;;;;;;28.96;99.25;101594.78;2615665;31;20049;-51
2022/07/20 09:11:06;;;;;;;11.48;9.52;;;;;;;29.19;99.11;101600.28;2615906;36;20041;-49
2022/07/20 09:13:36;;;;;;;15.93;9.40;;;;;;;29.44;95.48;101598.38;2615587;36;20073;-50
2022/07/20 09:16:04;;;;;;;15.63;8.82;;;;;;;29.60;92.86;101586.50;2614768;36;20061;-49
2022/07/20 09:18:34;;;;;;;12.85;8.75;;;;;;;29.42;89.03;101587.53;2615163;36;20042;-47
2022/07/20 09:21:04;;;;;;;14.32;8.65;;;;;;;29.45;90.17;101597.28;2615168;36;20030;-49
2022/07/20 09:23:34;;;;;;;14.38;8.35;;;;;;;29.51;84.99;101610.19;2615302;36;20583;-49
2022/07/20 09:26:06;;;;;;;10.63;8.07;;;;;;;29.68;82.82;101613.00;2614527;36;20027;-47
2022/07/20 09:28:40;;;;;;;11.75;8.02;;;;;;;29.90;80.43;101604.03;2615335;36;20034;-45
2022/07/20 09:31:14;;;;;;;11.20;8.18;;;;;;;29.73;82.37;101595.63;2615191;36;20678;-48
2022/07/20 09:33:50;;;;;;;9.82;8.05;;;;;;;29.41;81.40;101593.31;2615457;36;20093;-51
2022/07/20 09:36:20;;;;;;;12.20;7.95;;;;;;;29.38;82.53;101602.13;2614692;36;20041;-51
2022/07/20 09:38:48;;;;;;;12.15;8.25;;;;;;;29.40;83.36;101609.09;2613994;31;20026;-47
2022/07/20 09:41:30;;;;;;;11.85;8.27;;;;;;;30.16;81.91;101617.31;2615354;36;20037;-50
2022/07/20 09:44:00;;;;;;;12.88;7.88;;;;;;;29.98;80.94;101618.38;2615084;36;20061;-50
2022/07/20 09:46:30;;;;;;;15.45;8.32;;;;;;;29.94;84.00;101616.34;2614632;36;20065;-48
2022/07/20 09:49:01;;;;;;;9.73;7.07;;;;;;;30.55;82.53;101608.28;2615193;36;20081;-48
2022/07/20 09:51:33;;;;;;;12.63;7.88;;;;;;;30.17;80.70;101619.00;2614023;36;20057;-49
2022/07/20 09:54:03;;;;;;;12.32;8.02;;;;;;;30.44;74.45;101617.56;2615826;36;20042;-49
2022/07/20 09:56:35;;;;;;;11.10;7.60;;;;;;;30.87;74.64;101610.47;2615035;36;20048;-48
2022/07/20 09:59:07;;;;;;;10.45;8.05;;;;;;;30.37;72.24;101618.53;2615859;36;20043;-47
2022/07/20 10:01:38;;;;;;;9.88;7.53;;;;;;;30.54;75.50;101624.13;2615241;36;20483;-49
2022/07/20 10:04:09;;;;;;;10.20;7.13;;;;;;;30.53;80.73;101621.59;2615737;36;20050;-48
2022/07/20 10:06:39;;;;;;;10.98;7.53;;;;;;;30.26;77.28;101633.31;2614664;36;20045;-50
2022/07/20 10:09:09;;;;;;;11.45;7.20;;;;;;;29.99;78.83;101650.59;2615628;36;20030;-49
2022/07/20 10:11:40;;;;;;;9.55;6.80;;;;;;;30.10;80.87;101659.94;2615115;36;20030;-54
2022/07/20 10:14:08;;;;;;;11.65;7.15;;;;;;;29.80;84.23;101657.34;2614394;31;20059;-48
2022/07/20 10:16:40;;;;;;;12.82;7.50;;;;;;;30.16;75.46;101655.34;2614096;36;20080;-45
2022/07/20 10:19:10;;;;;;;15.18;7.07;;;;;;;30.02;75.03;101654.78;2615112;36;20065;-50
2022/07/20 10:21:41;;;;;;;11.57;6.60;;;;;;;29.95;76.00;101649.41;2615040;36;20039;-49
2022/07/20 10:24:17;;;;;;;12.32;6.85;;;;;;;30.20;73.97;101637.09;2614738;36;20034;-52
2022/07/20 10:26:49;;;;;;;10.68;7.13;;;;;;;30.60;72.79;101636.16;2614565;36;20034;-49
2022/07/20 10:29:29;;;;;;;10.88;7.13;;;;;;;30.85;70.42;101641.28;2613692;36;20089;-54
2022/07/20 10:31:59;;;;;;;11.30;6.85;;;;;;;30.78;74.00;101639.78;2614649;31;20034;-51
2022/07/20 10:34:35;;;;;;;9.20;6.88;;;;;;;30.52;74.01;101642.13;2614459;36;20065;-48
2022/07/20 10:37:24;;;;;;;14.07;6.88;;;;;;;30.33;76.52;101649.81;2612440;36;20038;-48
2022/07/20 10:39:54;;;;;;;11.43;6.28;;;;;;;30.72;72.02;101659.13;2614540;36;20023;-51
2022/07/20 10:42:28;;;;;;;9.88;6.47;;;;;;;30.92;69.94;101669.75;2613760;36;20039;-47
2022/07/20 10:44:57;;;;;;;11.73;7.05;;;;;;;30.53;70.33;101674.38;2615404;36;20030;-51
2022/07/20 10:47:42;;;;;;;9.05;6.35;;;;;;;30.90;76.62;101671.97;2614679;36;20050;-53
2022/07/20 10:50:11;;;;;;;11.82;7.03;;;;;;;31.64;66.60;101663.59;2614658;36;20053;-48
2022/07/20 10:52:39;;;;;;;9.20;6.47;;;;;;;30.68;66.97;101660.75;2615186;36;20042;-46
2022/07/20 10:55:08;;;;;;;10.95;5.88;;;;;;;30.51;68.57;101643.25;2615059;36;20041;-48
2022/07/20 10:57:39;;;;;;;9.10;6.13;;;;;;;31.11;70.12;101650.06;2614990;31;20069;-47
2022/07/20 11:00:11;;;;;;;13.35;5.70;;;;;;;31.61;63.54;101651.91;2615607;36;20050;-52
2022/07/20 11:02:40;;;;;;;9.02;5.40;;;;;;;31.61;62.70;101651.03;2615546;31;20635;-51
2022/07/20 11:05:21;;;;;;;9.30;5.63;;;;;;;31.43;62.06;101664.16;2614862;36;20108;-50
2022/07/20 11:07:50;;;;;;;8.20;5.15;;;;;;;30.85;63.31;101674.66;2615237;31;20125;-49
2022/07/20 11:10:26;;;;;;;13.10;5.07;;;;;;;31.31;63.10;101682.88;2615071;36;20049;-48
2022/07/20 11:13:02;;;;;;;6.18;5.10;;;;;;;31.22;59.66;101659.41;2615040;36;20030;-49
2022/07/20 11:15:42;;;;;;;8.18;4.57;;;;;;;31.50;59.90;101668.69;2615090;36;20034;-47
2022/07/20 11:18:12;;;;;;;7.72;5.35;;;;;;;31.64;59.20;101667.25;2614284;31;20030;-46
2022/07/20 11:20:48;;;;;;;7.97;4.88;;;;;;;31.42;63.12;101668.03;2614852;36;20030;-49
2022/07/20 11:23:17;;;;;;;8.35;5.03;;;;;;;31.21;61.21;101657.72;2615176;36;20038;-50
2022/07/20 11:25:51;;;;;;;7.20;5.45;;;;;;;30.86;63.46;101664.34;2614330;36;20034;-48
2022/07/20 11:28:25;;;;;;;8.77;5.20;;;;;;;30.55;63.46;101652.72;2614162;36;20074;-47